createdAt,value
2022-12-16T00:01:58.669Z,101209.47
2022-12-16T00:04:26.715Z,101210.72
2022-12-16T00:06:54.709Z,101208.91
2022-12-16T00:09:22.683Z,101216.88
2022-12-16T00:11:50.475Z,101212.41
2022-12-16T00:14:19.601Z,101209.88
2022-12-16T00:16:47.759Z,101214.94
2022-12-16T00:19:17.088Z,101222.47
2022-12-16T00:21:44.990Z,101219.03
2022-12-16T00:24:12.838Z,101219.91
2022-12-16T00:26:40.661Z,101221.53
2022-12-16T00:29:11.096Z,101220.91
2022-12-16T00:31:39.085Z,101227.78
2022-12-16T00:34:06.986Z,101228.84
2022-12-16T00:36:39.702Z,101230.47
2022-12-16T00:39:07.680Z,101229.78
2022-12-16T00:41:36.084Z,101231.03
2022-12-16T00:44:04.504Z,101227.59
2022-12-16T00:46:32.668Z,101236.41
2022-12-16T00:49:00.505Z,101244.75
2022-12-16T00:51:28.400Z,101243.19
2022-12-16T00:53:57.829Z,101243.56
2022-12-16T00:56:26.205Z,101244.75
2022-12-16T00:58:54.125Z,101248.38
2022-12-16T01:01:22.815Z,101244.34
2022-12-16T01:03:50.795Z,101252.13
2022-12-16T01:06:19.069Z,101254.00
2022-12-16T01:08:48.789Z,101251.19
2022-12-16T01:11:19.362Z,101268.13
2022-12-16T01:13:48.022Z,101267.34
2022-12-16T01:16:15.991Z,101264.88
2022-12-16T01:18:46.888Z,101268.22
2022-12-16T01:21:16.700Z,101278.09
2022-12-16T01:23:44.586Z,101280.75
2022-12-16T01:26:18.238Z,101273.72
2022-12-16T01:28:49.352Z,101276.13
2022-12-16T01:31:18.470Z,101271.56
2022-12-16T01:33:46.835Z,101269.84
2022-12-16T01:36:14.656Z,101269.69
2022-12-16T01:38:43.853Z,101266.06
2022-12-16T01:41:12.573Z,101268.16
2022-12-16T01:43:42.161Z,101273.59
2022-12-16T01:46:24.841Z,101269.50
2022-12-16T01:48:59.738Z,101264.78
2022-12-16T01:51:34.680Z,101258.28
2022-12-16T01:54:07.607Z,101263.09
2022-12-16T01:56:38.567Z,101276.34
2022-12-16T01:59:06.832Z,101257.94
2022-12-16T02:01:36.090Z,101266.59
2022-12-16T02:04:05.367Z,101265.19
2022-12-16T02:06:33.873Z,101278.25
2022-12-16T02:09:06.496Z,101274.72
2022-12-16T02:11:53.518Z,101278.66
2022-12-16T02:14:50.500Z,101287.72
2022-12-16T02:17:26.721Z,101280.50
2022-12-16T02:20:23.647Z,101281.41
2022-12-16T02:23:12.130Z,101276.50
2022-12-16T02:26:00.413Z,101276.09
2022-12-16T02:28:45.992Z,101276.41
2022-12-16T02:31:26.824Z,101274.91
2022-12-16T02:34:07.940Z,101278.84
2022-12-16T02:36:52.049Z,101277.09
2022-12-16T02:39:26.893Z,101281.00
2022-12-16T02:42:03.580Z,101277.97
2022-12-16T02:44:39.861Z,101281.91
2022-12-16T02:47:09.049Z,101279.16
2022-12-16T02:49:58.277Z,101289.06
2022-12-16T02:52:28.316Z,101291.22
2022-12-16T02:54:59.487Z,101290.28
2022-12-16T02:57:51.229Z,101303.06
2022-12-16T03:00:22.391Z,101313.19
2022-12-16T03:03:00.922Z,101318.94
2022-12-16T03:05:34.131Z,101313.03
2022-12-16T03:08:07.071Z,101317.06
2022-12-16T03:10:41.252Z,101309.75
2022-12-16T03:13:11.962Z,101308.47
2022-12-16T03:15:42.091Z,101303.91
2022-12-16T03:18:14.962Z,101320.25
2022-12-16T03:20:47.631Z,101325.50
2022-12-16T03:23:22.109Z,101331.56
2022-12-16T03:25:55.491Z,101332.16
2022-12-16T03:28:33.473Z,101319.63
2022-12-16T03:31:08.621Z,101313.13
2022-12-16T03:33:44.023Z,101320.59
2022-12-16T03:36:17.594Z,101320.41
2022-12-16T03:38:46.710Z,101320.59
2022-12-16T03:41:17.618Z,101326.06
2022-12-16T03:43:45.931Z,101333.78
2022-12-16T03:46:15.262Z,101339.66
2022-12-16T03:48:48.895Z,101333.97
2022-12-16T03:51:17.009Z,101343.41
2022-12-16T03:53:45.209Z,101340.09
2022-12-16T03:56:13.816Z,101346.88
2022-12-16T03:58:41.855Z,101345.66
2022-12-16T04:01:11.167Z,101343.16
2022-12-16T04:03:40.320Z,101334.59
2022-12-16T04:06:10.016Z,101337.00
2022-12-16T04:08:39.071Z,101339.06
2022-12-16T04:11:24.809Z,101347.91
2022-12-16T04:14:10.169Z,101354.97
2022-12-16T04:17:06.829Z,101346.69
2022-12-16T04:19:55.226Z,101353.41
2022-12-16T04:22:45.413Z,101354.56
2022-12-16T04:25:17.176Z,101360.84
2022-12-16T04:27:46.976Z,101363.66
2022-12-16T04:30:24.914Z,101358.69
2022-12-16T04:33:14.025Z,101359.19
2022-12-16T04:35:59.785Z,101372.41
2022-12-16T04:38:47.407Z,101379.97
2022-12-16T04:41:33.349Z,101374.41
2022-12-16T04:44:18.916Z,101371.13
2022-12-16T04:47:04.482Z,101371.50
2022-12-16T04:49:49.741Z,101370.91
2022-12-16T04:52:36.364Z,101377.94
2022-12-16T04:55:24.507Z,101388.25
2022-12-16T04:58:10.808Z,101392.72
2022-12-16T05:00:56.683Z,101397.53
2022-12-16T05:03:42.119Z,101405.09
2022-12-16T05:06:28.415Z,101411.59
2022-12-16T05:09:13.900Z,101411.88
2022-12-16T05:12:01.022Z,101418.97
2022-12-16T05:14:46.405Z,101422.41
2022-12-16T05:17:31.898Z,101420.84
2022-12-16T05:20:17.754Z,101425.84
2022-12-16T05:23:03.248Z,101445.28
2022-12-16T05:25:49.036Z,101453.75
2022-12-16T05:28:36.122Z,101453.56
2022-12-16T05:31:21.506Z,101449.78
2022-12-16T05:34:06.719Z,101451.41
2022-12-16T05:36:52.123Z,101449.50
2022-12-16T05:39:37.554Z,101446.25
2022-12-16T05:42:22.856Z,101441.72
2022-12-16T05:45:09.449Z,101447.81
2022-12-16T05:47:54.817Z,101444.50
2022-12-16T05:50:40.241Z,101437.50
2022-12-16T05:53:27.838Z,101439.53
2022-12-16T05:56:13.350Z,101444.94
2022-12-16T05:58:58.778Z,101452.25
2022-12-16T06:01:47.726Z,101443.09
2022-12-16T06:04:33.011Z,101440.84
2022-12-16T06:07:18.530Z,101444.88
2022-12-16T06:10:03.622Z,101457.16
2022-12-16T06:12:48.966Z,101467.19
2022-12-16T06:15:34.561Z,101460.59
2022-12-16T06:18:21.091Z,101468.25
2022-12-16T06:21:06.616Z,101470.13
2022-12-16T06:23:52.003Z,101467.63
2022-12-16T06:26:37.967Z,101461.72
2022-12-16T06:29:22.603Z,101466.72
2022-12-16T06:32:08.028Z,101479.06
2022-12-16T06:34:54.871Z,101485.44
2022-12-16T06:37:40.192Z,101494.34
2022-12-16T06:40:28.081Z,101506.09
2022-12-16T06:43:13.226Z,101519.88
2022-12-16T06:45:58.982Z,101525.41
2022-12-16T06:48:44.213Z,101539.91
2022-12-16T06:51:30.924Z,101535.50
2022-12-16T06:54:16.187Z,101537.88
2022-12-16T06:57:01.592Z,101546.41
2022-12-16T06:59:46.866Z,101546.94
2022-12-16T07:02:32.551Z,101556.81
2022-12-16T07:05:18.022Z,101551.94
2022-12-16T07:08:07.611Z,101567.41
2022-12-16T07:10:55.068Z,101569.22
2022-12-16T07:13:46.364Z,101562.88
2022-12-16T07:16:32.018Z,101558.88
2022-12-16T07:19:17.696Z,101567.88
2022-12-16T07:22:03.196Z,101565.84
2022-12-16T07:24:49.704Z,101578.31
2022-12-16T07:27:35.107Z,101580.44
2022-12-16T07:30:20.620Z,101569.13
2022-12-16T07:33:08.721Z,101582.94
2022-12-16T07:35:54.354Z,101582.34
2022-12-16T07:38:39.618Z,101576.22
2022-12-16T07:41:26.185Z,101594.63
2022-12-16T07:44:11.467Z,101600.91
2022-12-16T07:46:56.806Z,101603.72
2022-12-16T07:49:41.366Z,101607.88
2022-12-16T07:52:26.877Z,101607.81
2022-12-16T07:55:11.422Z,101611.91
2022-12-16T07:57:58.208Z,101610.22
2022-12-16T08:00:48.775Z,101605.13
2022-12-16T08:03:34.559Z,101613.69
2022-12-16T08:06:19.708Z,101621.34
2022-12-16T08:09:05.156Z,101634.69
2022-12-16T08:11:50.449Z,101630.34
2022-12-16T08:14:37.222Z,101632.78
2022-12-16T08:17:22.550Z,101633.97
2022-12-16T08:20:07.860Z,101634.75
2022-12-16T08:22:53.143Z,101633.91
2022-12-16T08:25:40.458Z,101645.31
2022-12-16T08:28:25.768Z,101642.16
2022-12-16T08:31:12.595Z,101656.91
2022-12-16T08:33:57.718Z,101658.25
2022-12-16T08:36:43.027Z,101658.38
2022-12-16T08:39:28.370Z,101664.16
2022-12-16T08:42:13.845Z,101668.72
2022-12-16T08:44:58.920Z,101673.88
2022-12-16T08:47:45.618Z,101671.81
2022-12-16T08:50:31.243Z,101680.41
2022-12-16T08:53:16.766Z,101686.44
2022-12-16T08:56:02.315Z,101687.50
2022-12-16T08:58:47.350Z,101699.38
2022-12-16T09:01:32.841Z,101697.97
2022-12-16T09:04:19.553Z,101709.69
2022-12-16T09:07:05.960Z,101712.47
2022-12-16T09:09:51.372Z,101715.34
2022-12-16T09:12:36.750Z,101717.63
2022-12-16T09:15:22.822Z,101713.06
2022-12-16T09:18:12.560Z,101703.09
2022-12-16T09:20:59.654Z,101705.78
2022-12-16T09:23:44.919Z,101708.25
2022-12-16T09:26:30.333Z,101703.38
2022-12-16T09:29:12.234Z,101698.56
2022-12-16T09:31:57.690Z,101695.97
2022-12-16T09:34:42.964Z,101683.03
2022-12-16T09:37:29.627Z,101699.53
2022-12-16T09:40:15.208Z,101713.41
2022-12-16T09:43:10.333Z,101706.44
2022-12-16T09:46:05.735Z,101713.31
2022-12-16T09:48:58.926Z,101706.19
2022-12-16T09:51:45.953Z,101706.00
2022-12-16T09:54:37.908Z,101706.84
2022-12-16T09:57:24.917Z,101711.47
2022-12-16T10:00:13.782Z,101701.31
2022-12-16T10:03:06.378Z,101705.94
2022-12-16T10:06:02.421Z,101701.34
2022-12-16T10:08:56.442Z,101701.66
2022-12-16T10:11:56.253Z,101705.63
2022-12-16T10:14:58.065Z,101704.56
2022-12-16T10:17:44.511Z,101714.03
2022-12-16T10:20:43.389Z,101716.84
2022-12-16T10:23:36.802Z,101727.00
2022-12-16T10:26:30.275Z,101724.69
2022-12-16T10:29:25.013Z,101709.75
2022-12-16T10:32:10.051Z,101724.75
2022-12-16T10:34:57.555Z,101731.81
2022-12-16T10:37:50.999Z,101735.78
2022-12-16T10:40:43.530Z,101741.91
2022-12-16T10:43:35.029Z,101744.69
2022-12-16T10:46:28.199Z,101753.69
2022-12-16T10:49:14.403Z,101757.50
2022-12-16T10:52:03.981Z,101767.97
2022-12-16T10:54:52.224Z,101774.03
2022-12-16T10:57:54.014Z,101768.38
2022-12-16T11:00:57.130Z,101766.28
2022-12-16T11:03:45.784Z,101771.94
2022-12-16T11:06:34.102Z,101771.47
2022-12-16T11:09:33.866Z,101778.66
2022-12-16T11:12:56.718Z,101784.69
2022-12-16T11:15:44.508Z,101774.28
2022-12-16T11:18:32.400Z,101768.56
2022-12-16T11:21:31.368Z,101768.19
2022-12-16T11:24:31.383Z,101770.50
2022-12-16T11:27:18.299Z,101772.38
2022-12-16T11:30:11.932Z,101772.84
2022-12-16T11:32:58.731Z,101768.94
2022-12-16T11:35:46.561Z,101769.16
2022-12-16T11:38:55.366Z,101767.78
2022-12-16T11:41:44.625Z,101769.91
2022-12-16T11:44:41.155Z,101776.00
2022-12-16T11:47:37.212Z,101775.75
2022-12-16T11:50:29.607Z,101777.59
2022-12-16T11:53:17.008Z,101792.88
2022-12-16T11:56:15.490Z,101785.59
2022-12-16T11:59:05.712Z,101790.69
2022-12-16T12:01:56.359Z,101785.91
2022-12-16T12:04:41.940Z,101774.47
2022-12-16T12:07:45.883Z,101772.97
2022-12-16T12:11:07.386Z,101775.69
2022-12-16T12:14:08.310Z,101772.47
2022-12-16T12:17:04.094Z,101781.16
2022-12-16T12:20:01.056Z,101791.94
2022-12-16T12:22:54.051Z,101797.84
2022-12-16T12:25:46.877Z,101792.75
2022-12-16T12:28:45.470Z,101789.66
2022-12-16T12:31:45.070Z,101799.78
2022-12-16T12:34:41.606Z,101792.34
2022-12-16T12:37:33.064Z,101785.06
2022-12-16T12:40:29.401Z,101783.69
2022-12-16T12:43:15.576Z,101788.41
2022-12-16T12:46:13.782Z,101790.16
2022-12-16T12:49:08.366Z,101791.13
2022-12-16T12:52:04.407Z,101797.16
2022-12-16T12:54:54.424Z,101795.53
2022-12-16T12:57:43.411Z,101797.31
2022-12-16T13:00:35.960Z,101804.97
2022-12-16T13:03:26.728Z,101801.59
2022-12-16T13:06:13.705Z,101812.50
2022-12-16T13:09:12.802Z,101816.56
2022-12-16T13:12:18.930Z,101817.44
2022-12-16T13:15:16.476Z,101824.81
2022-12-16T13:18:49.095Z,101824.50
2022-12-16T13:22:05.070Z,101827.09
2022-12-16T13:24:58.973Z,101826.00
2022-12-16T13:27:46.111Z,101821.22
2022-12-16T13:30:44.003Z,101837.28
2022-12-16T13:33:45.121Z,101820.53
2022-12-16T13:36:32.406Z,101818.00
2022-12-16T13:39:37.660Z,101824.81
2022-12-16T13:42:23.371Z,101828.34
2022-12-16T13:45:14.817Z,101840.00
2022-12-16T13:48:59.690Z,101831.75
2022-12-16T13:52:17.774Z,101828.63
2022-12-16T13:55:11.339Z,101847.53
2022-12-16T13:58:01.240Z,101842.28
2022-12-16T14:00:48.093Z,101836.16
2022-12-16T14:03:38.515Z,101843.53
2022-12-16T14:06:29.320Z,101853.25
2022-12-16T14:09:15.373Z,101850.47
2022-12-16T14:12:11.085Z,101861.03
2022-12-16T14:15:01.070Z,101855.94
2022-12-16T14:17:52.914Z,101859.94
2022-12-16T14:20:45.126Z,101867.91
2022-12-16T14:23:59.571Z,101866.09
2022-12-16T14:26:46.085Z,101873.16
2022-12-16T14:29:39.844Z,101879.81
2022-12-16T14:32:38.895Z,101872.84
2022-12-16T14:35:31.745Z,101872.84
2022-12-16T14:38:17.644Z,101879.31
2022-12-16T14:41:10.061Z,101883.63
2022-12-16T14:43:55.513Z,101877.84
2022-12-16T14:46:44.389Z,101880.66
2022-12-16T14:49:38.375Z,101881.44
2022-12-16T14:52:34.736Z,101890.53
2022-12-16T14:55:30.956Z,101886.25
2022-12-16T14:58:30.120Z,101897.44
2022-12-16T15:01:18.990Z,101895.53
2022-12-16T15:04:08.093Z,101884.69
2022-12-16T15:06:58.719Z,101901.09
2022-12-16T15:09:48.214Z,101891.72
2022-12-16T15:12:37.678Z,101901.81
2022-12-16T15:15:27.371Z,101902.28
2022-12-16T15:18:15.371Z,101900.03
2022-12-16T15:21:08.043Z,101910.72
2022-12-16T15:23:58.462Z,101903.53
2022-12-16T15:26:45.589Z,101907.06
2022-12-16T15:29:48.646Z,101913.06
2022-12-16T15:32:52.176Z,101908.53
2022-12-16T15:35:47.257Z,101920.19
2022-12-16T15:38:43.714Z,101918.53
2022-12-16T15:41:39.968Z,101927.13
2022-12-16T15:44:33.417Z,101932.81
2022-12-16T15:47:18.906Z,101931.19
2022-12-16T15:50:06.323Z,101944.56
2022-12-16T15:52:57.500Z,101942.75
2022-12-16T15:55:50.410Z,101944.09
2022-12-16T15:58:43.132Z,101942.28
2022-12-16T16:01:30.491Z,101935.66
2022-12-16T16:04:16.646Z,101922.91
2022-12-16T16:07:06.086Z,101917.09
2022-12-16T16:09:54.800Z,101925.47
2022-12-16T16:12:43.399Z,101936.88
2022-12-16T16:15:31.388Z,101939.13
2022-12-16T16:18:19.521Z,101946.38
2022-12-16T16:21:06.969Z,101954.91
2022-12-16T16:23:52.258Z,101953.91
2022-12-16T16:26:41.122Z,101952.19
2022-12-16T16:29:29.730Z,101959.53
2022-12-16T16:32:15.409Z,101960.88
2022-12-16T16:35:01.075Z,101963.56
2022-12-16T16:37:46.232Z,101964.94
2022-12-16T16:40:37.255Z,101969.00
2022-12-16T16:43:22.642Z,101976.66
2022-12-16T16:46:18.867Z,101975.97
2022-12-16T16:49:04.653Z,101980.53
2022-12-16T16:51:49.965Z,101996.44
2022-12-16T16:54:35.488Z,102002.53
2022-12-16T16:57:20.899Z,102001.44
2022-12-16T17:00:06.232Z,101996.84
2022-12-16T17:02:53.016Z,101995.56
2022-12-16T17:05:38.388Z,101993.91
2022-12-16T17:08:23.820Z,102005.03
2022-12-16T17:11:09.259Z,102002.13
2022-12-16T17:13:54.872Z,102004.97
2022-12-16T17:16:40.254Z,102017.28
2022-12-16T17:19:26.901Z,102022.03
2022-12-16T17:22:13.355Z,102017.03
2022-12-16T17:24:58.701Z,102016.84
2022-12-16T17:27:44.617Z,102022.09
2022-12-16T17:30:34.674Z,102023.81
2022-12-16T17:33:19.247Z,102025.88
2022-12-16T17:36:08.656Z,102027.53
2022-12-16T17:38:57.192Z,102025.84
2022-12-16T17:41:43.154Z,102020.75
2022-12-16T17:44:28.530Z,102036.13
2022-12-16T17:47:13.881Z,102034.41
2022-12-16T17:49:59.325Z,102037.75
2022-12-16T17:52:46.477Z,102026.47
2022-12-16T17:55:32.061Z,102038.34
2022-12-16T17:58:17.451Z,102034.56
2022-12-16T18:01:03.173Z,102042.16
2022-12-16T18:03:48.746Z,102034.84
2022-12-16T18:06:34.390Z,102036.38
2022-12-16T18:09:21.239Z,102032.19
2022-12-16T18:12:06.406Z,102032.44
2022-12-16T18:14:52.111Z,102044.34
2022-12-16T18:17:37.294Z,102038.91
2022-12-16T18:20:23.781Z,102041.47
2022-12-16T18:23:13.056Z,102049.41
2022-12-16T18:26:01.058Z,102050.00
2022-12-16T18:28:47.324Z,102045.00
2022-12-16T18:31:32.869Z,102047.06
2022-12-16T18:34:18.579Z,102049.81
2022-12-16T18:37:05.112Z,102036.91
2022-12-16T18:39:50.604Z,102055.47
2022-12-16T18:42:37.434Z,102056.22
2022-12-16T18:45:23.106Z,102065.19
2022-12-16T18:48:08.567Z,102062.41
2022-12-16T18:50:53.703Z,102073.06
2022-12-16T18:53:41.891Z,102071.81
2022-12-16T18:56:29.273Z,102070.56
2022-12-16T18:59:17.409Z,102072.00
2022-12-16T19:02:03.061Z,102082.31
2022-12-16T19:04:48.384Z,102068.94
2022-12-16T19:07:34.238Z,102078.19
2022-12-16T19:10:20.733Z,102081.63
2022-12-16T19:13:06.187Z,102086.63
2022-12-16T19:15:53.028Z,102094.28
2022-12-16T19:18:38.413Z,102093.81
2022-12-16T19:21:24.787Z,102095.81
2022-12-16T19:24:10.111Z,102098.06
2022-12-16T19:26:52.005Z,102100.09
2022-12-16T19:29:37.455Z,102096.03
2022-12-16T19:32:24.423Z,102104.38
2022-12-16T19:35:18.230Z,102106.59
2022-12-16T19:38:03.532Z,102112.19
2022-12-16T19:40:48.984Z,102111.69
2022-12-16T19:43:35.145Z,102119.69
2022-12-16T19:46:20.629Z,102119.13
2022-12-16T19:49:07.615Z,102117.78
2022-12-16T19:51:53.957Z,102116.81
2022-12-16T19:54:42.243Z,102113.06
2022-12-16T19:57:28.406Z,102119.19
2022-12-16T20:00:13.654Z,102122.47
2022-12-16T20:02:59.042Z,102132.75
2022-12-16T20:05:46.032Z,102131.41
2022-12-16T20:08:32.912Z,102145.81
2022-12-16T20:11:25.490Z,102147.06
2022-12-16T20:14:11.696Z,102151.00
2022-12-16T20:16:57.767Z,102148.63
2022-12-16T20:19:45.510Z,102155.25
2022-12-16T20:22:47.014Z,102150.47
2022-12-16T20:25:32.598Z,102162.84
2022-12-16T20:31:23.776Z,102163.13
2022-12-16T20:34:11.722Z,102163.50
2022-12-16T20:36:57.186Z,102157.13
2022-12-16T20:39:47.980Z,102165.50
2022-12-16T20:42:36.585Z,102167.78
2022-12-16T20:45:22.117Z,102165.09
2022-12-16T20:48:07.472Z,102178.38
2022-12-16T20:50:55.939Z,102186.56
2022-12-16T20:53:41.831Z,102193.56
2022-12-16T20:56:29.362Z,102194.69
2022-12-16T20:59:14.858Z,102194.06
2022-12-16T21:02:22.327Z,102203.19
2022-12-16T21:05:05.334Z,102206.50
2022-12-16T21:07:50.733Z,102213.41
2022-12-16T21:10:37.529Z,102212.16
2022-12-16T21:13:29.353Z,102209.41
2022-12-16T21:16:16.260Z,102204.31
2022-12-16T21:19:01.699Z,102206.50
2022-12-16T21:21:47.752Z,102209.28
2022-12-16T21:24:33.122Z,102203.63
2022-12-16T21:27:18.548Z,102198.84
2022-12-16T21:30:05.096Z,102212.59
2022-12-16T21:32:50.621Z,102204.00
2022-12-16T21:35:39.414Z,102201.06
2022-12-16T21:38:27.233Z,102200.88
2022-12-16T21:41:21.998Z,102197.50
2022-12-16T21:44:09.429Z,102201.00
2022-12-16T21:47:07.805Z,102197.03
2022-12-16T21:49:52.970Z,102206.38
2022-12-16T21:52:41.511Z,102208.75
2022-12-16T21:55:26.807Z,102216.84
2022-12-16T21:58:12.177Z,102208.19
2022-12-16T22:01:00.504Z,102213.72
2022-12-16T22:03:52.138Z,102208.59
2022-12-16T22:06:37.314Z,102200.44
2022-12-16T22:09:23.100Z,102210.56
2022-12-16T22:12:09.605Z,102205.28
2022-12-16T22:14:54.812Z,102208.16
2022-12-16T22:17:43.976Z,102214.00
2022-12-16T22:20:31.165Z,102207.09
2022-12-16T22:23:16.374Z,102214.16
2022-12-16T22:26:01.668Z,102213.63
2022-12-16T22:28:47.072Z,102218.06
2022-12-16T22:31:32.409Z,102207.34
2022-12-16T22:34:27.507Z,102207.63
2022-12-16T22:37:14.585Z,102200.41
2022-12-16T22:40:00.022Z,102204.69
2022-12-16T22:42:45.382Z,102207.47
2022-12-16T22:45:30.851Z,102196.84
2022-12-16T22:48:16.036Z,102206.53
2022-12-16T22:51:01.430Z,102202.53
2022-12-16T22:53:48.123Z,102191.63
2022-12-16T22:56:33.622Z,102197.03
2022-12-16T22:59:18.978Z,102201.44
2022-12-16T23:02:41.915Z,102203.19
2022-12-16T23:05:28.138Z,102193.78
2022-12-16T23:08:13.665Z,102188.06
2022-12-16T23:11:00.757Z,102191.69
2022-12-16T23:13:47.032Z,102208.03
2022-12-16T23:16:32.208Z,102205.78
2022-12-16T23:19:19.473Z,102206.88
2022-12-16T23:22:08.489Z,102207.97
2022-12-16T23:24:54.886Z,102207.31
2022-12-16T23:27:44.180Z,102204.38
2022-12-16T23:30:30.002Z,102202.09
2022-12-16T23:33:16.545Z,102201.44
2022-12-16T23:35:58.418Z,102201.63
2022-12-16T23:38:44.323Z,102201.69
2022-12-16T23:41:29.739Z,102206.75
2022-12-16T23:44:16.422Z,102202.50
2022-12-16T23:47:01.679Z,102193.06
2022-12-16T23:49:49.262Z,102180.25
2022-12-16T23:52:34.621Z,102187.41
2022-12-16T23:55:19.965Z,102180.28
2022-12-16T23:58:05.123Z,102186.97
